sensor_id;sensor_type;location;lat;lon;timestamp;P1;durP1;ratioP1;P2;durP2;ratioP2
8636;SDS011;4356;49.068;8.658;2023-10-31T00:01:08;0.30;;;0.30;;
8636;SDS011;4356;49.068;8.658;2023-10-31T00:03:33;0.90;;;0.33;;
8636;SDS011;4356;49.068;8.658;2023-10-31T00:05:59;1.17;;;0.60;;
8636;SDS011;4356;49.068;8.658;2023-10-31T00:08:24;2.80;;;0.63;;
8636;SDS011;4356;49.068;8.658;2023-10-31T00:10:50;0.97;;;0.97;;
8636;SDS011;4356;49.068;8.658;2023-10-31T00:13:15;0.50;;;0.50;;
8636;SDS011;4356;49.068;8.658;2023-10-31T00:15:40;0.60;;;0.60;;
8636;SDS011;4356;49.068;8.658;2023-10-31T00:18:06;0.60;;;0.43;;
8636;SDS011;4356;49.068;8.658;2023-10-31T00:20:31;0.30;;;0.30;;
8636;SDS011;4356;49.068;8.658;2023-10-31T00:22:57;0.63;;;0.40;;
8636;SDS011;4356;49.068;8.658;2023-10-31T00:25:22;0.43;;;0.43;;
8636;SDS011;4356;49.068;8.658;2023-10-31T00:27:48;0.47;;;0.47;;
8636;SDS011;4356;49.068;8.658;2023-10-31T00:30:13;0.40;;;0.40;;
8636;SDS011;4356;49.068;8.658;2023-10-31T00:32:38;0.37;;;0.37;;
8636;SDS011;4356;49.068;8.658;2023-10-31T00:35:04;0.37;;;0.37;;
8636;SDS011;4356;49.068;8.658;2023-10-31T00:37:29;0.23;;;0.23;;
8636;SDS011;4356;49.068;8.658;2023-10-31T00:39:55;0.97;;;0.37;;
8636;SDS011;4356;49.068;8.658;2023-10-31T00:42:20;0.57;;;0.57;;
8636;SDS011;4356;49.068;8.658;2023-10-31T00:44:45;0.37;;;0.37;;
8636;SDS011;4356;49.068;8.658;2023-10-31T00:47:13;1.60;;;0.57;;
8636;SDS011;4356;49.068;8.658;2023-10-31T00:49:40;0.57;;;0.57;;
8636;SDS011;4356;49.068;8.658;2023-10-31T00:52:05;0.43;;;0.23;;
8636;SDS011;4356;49.068;8.658;2023-10-31T00:54:31;0.40;;;0.40;;
8636;SDS011;4356;49.068;8.658;2023-10-31T00:56:56;0.63;;;0.43;;
8636;SDS011;4356;49.068;8.658;2023-10-31T00:59:21;0.13;;;0.13;;
8636;SDS011;4356;49.068;8.658;2023-10-31T01:01:47;0.20;;;0.20;;
8636;SDS011;4356;49.068;8.658;2023-10-31T01:04:12;0.40;;;0.40;;
8636;SDS011;4356;49.068;8.658;2023-10-31T01:06:41;0.73;;;0.57;;
8636;SDS011;4356;49.068;8.658;2023-10-31T01:09:07;0.43;;;0.40;;
8636;SDS011;4356;49.068;8.658;2023-10-31T01:11:32;0.30;;;0.30;;
8636;SDS011;4356;49.068;8.658;2023-10-31T01:13:57;0.30;;;0.30;;
8636;SDS011;4356;49.068;8.658;2023-10-31T01:16:23;0.47;;;0.47;;
8636;SDS011;4356;49.068;8.658;2023-10-31T01:18:48;2.00;;;0.20;;
8636;SDS011;4356;49.068;8.658;2023-10-31T01:21:13;0.30;;;0.30;;
8636;SDS011;4356;49.068;8.658;2023-10-31T01:23:39;0.20;;;0.20;;
8636;SDS011;4356;49.068;8.658;2023-10-31T01:26:04;0.70;;;0.50;;
8636;SDS011;4356;49.068;8.658;2023-10-31T01:28:30;0.60;;;0.60;;
8636;SDS011;4356;49.068;8.658;2023-10-31T01:30:55;0.40;;;0.40;;
8636;SDS011;4356;49.068;8.658;2023-10-31T01:33:20;0.20;;;0.20;;
8636;SDS011;4356;49.068;8.658;2023-10-31T01:35:46;0.60;;;0.40;;
8636;SDS011;4356;49.068;8.658;2023-10-31T01:38:11;0.37;;;0.37;;
8636;SDS011;4356;49.068;8.658;2023-10-31T01:40:37;0.30;;;0.30;;
8636;SDS011;4356;49.068;8.658;2023-10-31T01:43:02;0.60;;;0.50;;
8636;SDS011;4356;49.068;8.658;2023-10-31T01:45:27;0.30;;;0.30;;
8636;SDS011;4356;49.068;8.658;2023-10-31T01:47:53;0.37;;;0.20;;
8636;SDS011;4356;49.068;8.658;2023-10-31T01:50:18;0.50;;;0.50;;
8636;SDS011;4356;49.068;8.658;2023-10-31T01:52:44;0.33;;;0.33;;
8636;SDS011;4356;49.068;8.658;2023-10-31T01:55:10;0.40;;;0.40;;
8636;SDS011;4356;49.068;8.658;2023-10-31T01:57:36;0.40;;;0.40;;
8636;SDS011;4356;49.068;8.658;2023-10-31T02:00:01;0.40;;;0.40;;
8636;SDS011;4356;49.068;8.658;2023-10-31T02:02:27;0.83;;;0.50;;
8636;SDS011;4356;49.068;8.658;2023-10-31T02:04:55;0.30;;;0.30;;
8636;SDS011;4356;49.068;8.658;2023-10-31T02:07:21;0.43;;;0.43;;
8636;SDS011;4356;49.068;8.658;2023-10-31T02:09:46;0.40;;;0.40;;
8636;SDS011;4356;49.068;8.658;2023-10-31T02:12:28;0.40;;;0.40;;
8636;SDS011;4356;49.068;8.658;2023-10-31T02:14:56;0.30;;;0.30;;
8636;SDS011;4356;49.068;8.658;2023-10-31T02:17:21;0.43;;;0.43;;
8636;SDS011;4356;49.068;8.658;2023-10-31T02:19:47;0.10;;;0.10;;
8636;SDS011;4356;49.068;8.658;2023-10-31T02:22:12;0.30;;;0.30;;
8636;SDS011;4356;49.068;8.658;2023-10-31T02:24:38;2.07;;;0.53;;
8636;SDS011;4356;49.068;8.658;2023-10-31T02:27:03;0.40;;;0.40;;
8636;SDS011;4356;49.068;8.658;2023-10-31T02:29:28;0.30;;;0.30;;
8636;SDS011;4356;49.068;8.658;2023-10-31T02:31:54;0.70;;;0.53;;
8636;SDS011;4356;49.068;8.658;2023-10-31T02:34:20;0.50;;;0.50;;
8636;SDS011;4356;49.068;8.658;2023-10-31T02:36:45;0.53;;;0.40;;
8636;SDS011;4356;49.068;8.658;2023-10-31T02:39:10;0.57;;;0.37;;
8636;SDS011;4356;49.068;8.658;2023-10-31T02:41:36;0.27;;;0.27;;
8636;SDS011;4356;49.068;8.658;2023-10-31T02:44:01;0.97;;;0.60;;
8636;SDS011;4356;49.068;8.658;2023-10-31T02:46:27;1.60;;;0.40;;
8636;SDS011;4356;49.068;8.658;2023-10-31T02:48:52;0.50;;;0.50;;
8636;SDS011;4356;49.068;8.658;2023-10-31T02:51:17;1.70;;;0.30;;
8636;SDS011;4356;49.068;8.658;2023-10-31T02:53:43;0.50;;;0.40;;
8636;SDS011;4356;49.068;8.658;2023-10-31T02:56:08;0.30;;;0.30;;
8636;SDS011;4356;49.068;8.658;2023-10-31T02:58:34;0.30;;;0.30;;
8636;SDS011;4356;49.068;8.658;2023-10-31T03:00:59;0.30;;;0.30;;
8636;SDS011;4356;49.068;8.658;2023-10-31T03:03:27;0.30;;;0.30;;
8636;SDS011;4356;49.068;8.658;2023-10-31T03:05:53;0.53;;;0.50;;
8636;SDS011;4356;49.068;8.658;2023-10-31T03:08:18;0.90;;;0.50;;
8636;SDS011;4356;49.068;8.658;2023-10-31T03:10:47;0.53;;;0.53;;
8636;SDS011;4356;49.068;8.658;2023-10-31T03:13:15;0.47;;;0.47;;
8636;SDS011;4356;49.068;8.658;2023-10-31T03:15:41;0.30;;;0.30;;
8636;SDS011;4356;49.068;8.658;2023-10-31T03:18:07;1.60;;;0.57;;
8636;SDS011;4356;49.068;8.658;2023-10-31T03:20:32;0.40;;;0.40;;
8636;SDS011;4356;49.068;8.658;2023-10-31T03:22:57;0.30;;;0.30;;
8636;SDS011;4356;49.068;8.658;2023-10-31T03:25:23;0.50;;;0.50;;
8636;SDS011;4356;49.068;8.658;2023-10-31T03:27:48;0.70;;;0.33;;
8636;SDS011;4356;49.068;8.658;2023-10-31T03:30:13;0.40;;;0.40;;
8636;SDS011;4356;49.068;8.658;2023-10-31T03:32:39;0.60;;;0.60;;
8636;SDS011;4356;49.068;8.658;2023-10-31T03:35:05;0.40;;;0.40;;
8636;SDS011;4356;49.068;8.658;2023-10-31T03:37:30;0.77;;;0.50;;
8636;SDS011;4356;49.068;8.658;2023-10-31T03:39:56;0.30;;;0.30;;
8636;SDS011;4356;49.068;8.658;2023-10-31T03:42:21;0.40;;;0.40;;
8636;SDS011;4356;49.068;8.658;2023-10-31T03:44:46;0.10;;;0.10;;
8636;SDS011;4356;49.068;8.658;2023-10-31T03:47:12;0.30;;;0.30;;
8636;SDS011;4356;49.068;8.658;2023-10-31T03:49:39;0.30;;;0.20;;
8636;SDS011;4356;49.068;8.658;2023-10-31T03:52:05;0.43;;;0.43;;
8636;SDS011;4356;49.068;8.658;2023-10-31T03:54:31;0.57;;;0.57;;
8636;SDS011;4356;49.068;8.658;2023-10-31T03:56:56;0.47;;;0.47;;
8636;SDS011;4356;49.068;8.658;2023-10-31T03:59:21;0.67;;;0.67;;
8636;SDS011;4356;49.068;8.658;2023-10-31T04:01:46;2.03;;;0.30;;
8636;SDS011;4356;49.068;8.658;2023-10-31T04:04:12;0.60;;;0.60;;
8636;SDS011;4356;49.068;8.658;2023-10-31T04:06:37;0.40;;;0.40;;
8636;SDS011;4356;49.068;8.658;2023-10-31T04:09:05;0.23;;;0.23;;
8636;SDS011;4356;49.068;8.658;2023-10-31T04:11:31;1.03;;;0.37;;
8636;SDS011;4356;49.068;8.658;2023-10-31T04:13:56;0.40;;;0.40;;
8636;SDS011;4356;49.068;8.658;2023-10-31T04:16:22;0.33;;;0.33;;
8636;SDS011;4356;49.068;8.658;2023-10-31T04:18:47;0.37;;;0.37;;
8636;SDS011;4356;49.068;8.658;2023-10-31T04:21:12;0.50;;;0.50;;
8636;SDS011;4356;49.068;8.658;2023-10-31T04:23:38;0.47;;;0.47;;
8636;SDS011;4356;49.068;8.658;2023-10-31T04:26:03;0.40;;;0.40;;
8636;SDS011;4356;49.068;8.658;2023-10-31T04:28:28;0.87;;;0.60;;
8636;SDS011;4356;49.068;8.658;2023-10-31T04:30:54;0.57;;;0.57;;
8636;SDS011;4356;49.068;8.658;2023-10-31T04:33:19;0.20;;;0.20;;
8636;SDS011;4356;49.068;8.658;2023-10-31T04:35:44;0.20;;;0.20;;
8636;SDS011;4356;49.068;8.658;2023-10-31T04:38:10;0.40;;;0.40;;
8636;SDS011;4356;49.068;8.658;2023-10-31T04:40:35;0.40;;;0.40;;
8636;SDS011;4356;49.068;8.658;2023-10-31T04:43:01;0.37;;;0.37;;
8636;SDS011;4356;49.068;8.658;2023-10-31T04:45:26;0.30;;;0.30;;
8636;SDS011;4356;49.068;8.658;2023-10-31T04:47:51;1.90;;;0.60;;
8636;SDS011;4356;49.068;8.658;2023-10-31T04:50:17;0.40;;;0.40;;
8636;SDS011;4356;49.068;8.658;2023-10-31T04:52:42;0.50;;;0.50;;
8636;SDS011;4356;49.068;8.658;2023-10-31T04:55:08;0.53;;;0.53;;
8636;SDS011;4356;49.068;8.658;2023-10-31T04:57:33;0.40;;;0.40;;
8636;SDS011;4356;49.068;8.658;2023-10-31T04:59:58;0.27;;;0.27;;
8636;SDS011;4356;49.068;8.658;2023-10-31T05:02:24;0.50;;;0.50;;
8636;SDS011;4356;49.068;8.658;2023-10-31T05:04:49;0.60;;;0.60;;
8636;SDS011;4356;49.068;8.658;2023-10-31T05:07:18;0.33;;;0.33;;
8636;SDS011;4356;49.068;8.658;2023-10-31T05:09:43;0.53;;;0.53;;
8636;SDS011;4356;49.068;8.658;2023-10-31T05:12:09;0.40;;;0.40;;
8636;SDS011;4356;49.068;8.658;2023-10-31T05:14:34;0.40;;;0.40;;
8636;SDS011;4356;49.068;8.658;2023-10-31T05:17:00;0.30;;;0.30;;
8636;SDS011;4356;49.068;8.658;2023-10-31T05:19:25;1.10;;;0.50;;
8636;SDS011;4356;49.068;8.658;2023-10-31T05:21:51;0.40;;;0.40;;
8636;SDS011;4356;49.068;8.658;2023-10-31T05:24:16;0.53;;;0.53;;
8636;SDS011;4356;49.068;8.658;2023-10-31T05:26:42;0.40;;;0.40;;
8636;SDS011;4356;49.068;8.658;2023-10-31T05:29:08;1.50;;;0.60;;
8636;SDS011;4356;49.068;8.658;2023-10-31T05:31:33;0.53;;;0.43;;
8636;SDS011;4356;49.068;8.658;2023-10-31T05:33:58;0.30;;;0.30;;
8636;SDS011;4356;49.068;8.658;2023-10-31T05:36:24;0.37;;;0.30;;
8636;SDS011;4356;49.068;8.658;2023-10-31T05:38:50;0.40;;;0.40;;
8636;SDS011;4356;49.068;8.658;2023-10-31T05:41:16;0.60;;;0.57;;
8636;SDS011;4356;49.068;8.658;2023-10-31T05:43:41;0.20;;;0.20;;
8636;SDS011;4356;49.068;8.658;2023-10-31T05:46:07;3.53;;;0.70;;
8636;SDS011;4356;49.068;8.658;2023-10-31T05:48:37;2.47;;;0.70;;
8636;SDS011;4356;49.068;8.658;2023-10-31T05:51:03;0.40;;;0.40;;
8636;SDS011;4356;49.068;8.658;2023-10-31T05:53:29;0.43;;;0.43;;
8636;SDS011;4356;49.068;8.658;2023-10-31T05:55:57;0.50;;;0.50;;
8636;SDS011;4356;49.068;8.658;2023-10-31T05:58:22;0.30;;;0.30;;
8636;SDS011;4356;49.068;8.658;2023-10-31T06:00:48;0.40;;;0.40;;
8636;SDS011;4356;49.068;8.658;2023-10-31T06:03:13;0.70;;;0.70;;
8636;SDS011;4356;49.068;8.658;2023-10-31T06:05:38;0.73;;;0.50;;
8636;SDS011;4356;49.068;8.658;2023-10-31T06:08:04;0.30;;;0.30;;
8636;SDS011;4356;49.068;8.658;2023-10-31T06:10:30;0.50;;;0.50;;
8636;SDS011;4356;49.068;8.658;2023-10-31T06:12:55;0.30;;;0.30;;
8636;SDS011;4356;49.068;8.658;2023-10-31T06:15:20;0.10;;;0.10;;
8636;SDS011;4356;49.068;8.658;2023-10-31T06:17:46;2.20;;;0.47;;
8636;SDS011;4356;49.068;8.658;2023-10-31T06:20:11;0.77;;;0.77;;
8636;SDS011;4356;49.068;8.658;2023-10-31T06:22:36;1.50;;;0.50;;
8636;SDS011;4356;49.068;8.658;2023-10-31T06:25:02;0.30;;;0.30;;
8636;SDS011;4356;49.068;8.658;2023-10-31T06:27:27;0.40;;;0.40;;
8636;SDS011;4356;49.068;8.658;2023-10-31T06:29:53;0.33;;;0.33;;
8636;SDS011;4356;49.068;8.658;2023-10-31T06:32:18;0.50;;;0.50;;
8636;SDS011;4356;49.068;8.658;2023-10-31T06:34:43;0.77;;;0.77;;
8636;SDS011;4356;49.068;8.658;2023-10-31T06:37:09;0.57;;;0.57;;
8636;SDS011;4356;49.068;8.658;2023-10-31T06:39:35;0.27;;;0.27;;
8636;SDS011;4356;49.068;8.658;2023-10-31T06:42:01;0.17;;;0.17;;
8636;SDS011;4356;49.068;8.658;2023-10-31T06:44:26;0.40;;;0.40;;
8636;SDS011;4356;49.068;8.658;2023-10-31T06:46:52;1.70;;;0.50;;
8636;SDS011;4356;49.068;8.658;2023-10-31T06:49:17;0.50;;;0.50;;
8636;SDS011;4356;49.068;8.658;2023-10-31T06:51:44;0.37;;;0.37;;
8636;SDS011;4356;49.068;8.658;2023-10-31T06:54:10;1.23;;;0.50;;
8636;SDS011;4356;49.068;8.658;2023-10-31T06:56:35;0.87;;;0.57;;
8636;SDS011;4356;49.068;8.658;2023-10-31T06:59:01;1.40;;;0.30;;
8636;SDS011;4356;49.068;8.658;2023-10-31T07:01:26;0.50;;;0.50;;
8636;SDS011;4356;49.068;8.658;2023-10-31T07:03:52;0.33;;;0.33;;
8636;SDS011;4356;49.068;8.658;2023-10-31T07:06:17;0.20;;;0.20;;
8636;SDS011;4356;49.068;8.658;2023-10-31T07:08:43;1.50;;;0.50;;
8636;SDS011;4356;49.068;8.658;2023-10-31T07:11:08;0.47;;;0.47;;
8636;SDS011;4356;49.068;8.658;2023-10-31T07:13:34;0.30;;;0.30;;
8636;SDS011;4356;49.068;8.658;2023-10-31T07:15:59;0.50;;;0.50;;
8636;SDS011;4356;49.068;8.658;2023-10-31T07:18:25;0.77;;;0.63;;
8636;SDS011;4356;49.068;8.658;2023-10-31T07:20:50;0.87;;;0.60;;
8636;SDS011;4356;49.068;8.658;2023-10-31T07:23:16;0.63;;;0.63;;
8636;SDS011;4356;49.068;8.658;2023-10-31T07:25:41;0.87;;;0.50;;
8636;SDS011;4356;49.068;8.658;2023-10-31T07:28:06;0.40;;;0.40;;
8636;SDS011;4356;49.068;8.658;2023-10-31T07:30:32;0.80;;;0.40;;
8636;SDS011;4356;49.068;8.658;2023-10-31T07:32:57;2.13;;;0.70;;
8636;SDS011;4356;49.068;8.658;2023-10-31T07:35:22;0.67;;;0.50;;
8636;SDS011;4356;49.068;8.658;2023-10-31T07:37:48;0.40;;;0.40;;
8636;SDS011;4356;49.068;8.658;2023-10-31T07:40:13;2.63;;;0.60;;
8636;SDS011;4356;49.068;8.658;2023-10-31T07:42:39;0.60;;;0.60;;
8636;SDS011;4356;49.068;8.658;2023-10-31T07:45:04;0.90;;;0.90;;
8636;SDS011;4356;49.068;8.658;2023-10-31T07:47:30;0.83;;;0.83;;
8636;SDS011;4356;49.068;8.658;2023-10-31T07:49:55;1.03;;;0.60;;
8636;SDS011;4356;49.068;8.658;2023-10-31T07:52:21;1.30;;;0.83;;
8636;SDS011;4356;49.068;8.658;2023-10-31T07:54:46;0.47;;;0.47;;
8636;SDS011;4356;49.068;8.658;2023-10-31T07:57:11;0.73;;;0.73;;
8636;SDS011;4356;49.068;8.658;2023-10-31T07:59:37;1.00;;;1.00;;
8636;SDS011;4356;49.068;8.658;2023-10-31T08:02:02;1.20;;;1.10;;
8636;SDS011;4356;49.068;8.658;2023-10-31T08:04:28;9.20;;;2.80;;
8636;SDS011;4356;49.068;8.658;2023-10-31T08:06:55;3.33;;;1.83;;
8636;SDS011;4356;49.068;8.658;2023-10-31T08:09:20;3.37;;;2.13;;
8636;SDS011;4356;49.068;8.658;2023-10-31T08:11:46;3.40;;;1.97;;
8636;SDS011;4356;49.068;8.658;2023-10-31T08:14:11;1.50;;;1.40;;
8636;SDS011;4356;49.068;8.658;2023-10-31T08:16:36;1.43;;;1.33;;
8636;SDS011;4356;49.068;8.658;2023-10-31T08:19:02;1.30;;;0.97;;
8636;SDS011;4356;49.068;8.658;2023-10-31T08:21:27;0.80;;;0.80;;
8636;SDS011;4356;49.068;8.658;2023-10-31T08:23:58;1.60;;;0.93;;
8636;SDS011;4356;49.068;8.658;2023-10-31T08:26:24;3.40;;;1.03;;
8636;SDS011;4356;49.068;8.658;2023-10-31T08:28:49;0.97;;;0.80;;
8636;SDS011;4356;49.068;8.658;2023-10-31T08:31:16;0.87;;;0.80;;
8636;SDS011;4356;49.068;8.658;2023-10-31T08:33:41;0.97;;;0.73;;
8636;SDS011;4356;49.068;8.658;2023-10-31T08:36:07;2.07;;;1.03;;
8636;SDS011;4356;49.068;8.658;2023-10-31T08:38:33;1.60;;;0.70;;
8636;SDS011;4356;49.068;8.658;2023-10-31T08:40:59;2.37;;;1.03;;
8636;SDS011;4356;49.068;8.658;2023-10-31T08:43:24;2.53;;;1.07;;
8636;SDS011;4356;49.068;8.658;2023-10-31T08:45:50;1.47;;;1.00;;
8636;SDS011;4356;49.068;8.658;2023-10-31T08:48:15;1.13;;;0.80;;
8636;SDS011;4356;49.068;8.658;2023-10-31T08:50:40;1.77;;;0.97;;
8636;SDS011;4356;49.068;8.658;2023-10-31T08:53:06;1.40;;;0.60;;
8636;SDS011;4356;49.068;8.658;2023-10-31T08:55:31;0.43;;;0.43;;
8636;SDS011;4356;49.068;8.658;2023-10-31T08:57:57;1.40;;;1.30;;
8636;SDS011;4356;49.068;8.658;2023-10-31T09:00:22;1.63;;;0.87;;
8636;SDS011;4356;49.068;8.658;2023-10-31T09:02:48;1.10;;;1.00;;
8636;SDS011;4356;49.068;8.658;2023-10-31T09:05:13;1.30;;;1.00;;
8636;SDS011;4356;49.068;8.658;2023-10-31T09:07:39;1.03;;;0.87;;
8636;SDS011;4356;49.068;8.658;2023-10-31T09:10:04;1.50;;;0.90;;
8636;SDS011;4356;49.068;8.658;2023-10-31T09:12:30;1.63;;;0.80;;
8636;SDS011;4356;49.068;8.658;2023-10-31T09:14:56;0.60;;;0.60;;
8636;SDS011;4356;49.068;8.658;2023-10-31T09:17:21;1.70;;;1.00;;
8636;SDS011;4356;49.068;8.658;2023-10-31T09:19:46;1.27;;;1.20;;
8636;SDS011;4356;49.068;8.658;2023-10-31T09:22:12;1.80;;;0.93;;
8636;SDS011;4356;49.068;8.658;2023-10-31T09:24:37;2.90;;;1.10;;
8636;SDS011;4356;49.068;8.658;2023-10-31T09:27:04;0.93;;;0.83;;
8636;SDS011;4356;49.068;8.658;2023-10-31T09:29:29;1.03;;;0.90;;
8636;SDS011;4356;49.068;8.658;2023-10-31T09:31:54;0.87;;;0.77;;
8636;SDS011;4356;49.068;8.658;2023-10-31T09:34:20;2.90;;;0.70;;
8636;SDS011;4356;49.068;8.658;2023-10-31T09:36:45;1.30;;;0.90;;
8636;SDS011;4356;49.068;8.658;2023-10-31T09:39:10;0.83;;;0.83;;
8636;SDS011;4356;49.068;8.658;2023-10-31T09:41:36;1.67;;;1.13;;
8636;SDS011;4356;49.068;8.658;2023-10-31T09:44:01;0.57;;;0.50;;
8636;SDS011;4356;49.068;8.658;2023-10-31T09:46:30;0.40;;;0.40;;
8636;SDS011;4356;49.068;8.658;2023-10-31T09:48:55;1.40;;;0.77;;
8636;SDS011;4356;49.068;8.658;2023-10-31T09:51:21;2.60;;;0.80;;
8636;SDS011;4356;49.068;8.658;2023-10-31T09:53:47;1.13;;;1.13;;
8636;SDS011;4356;49.068;8.658;2023-10-31T09:56:16;1.80;;;1.20;;
8636;SDS011;4356;49.068;8.658;2023-10-31T09:58:42;0.87;;;0.87;;
8636;SDS011;4356;49.068;8.658;2023-10-31T10:01:07;1.67;;;0.90;;
8636;SDS011;4356;49.068;8.658;2023-10-31T10:03:33;0.90;;;0.90;;
8636;SDS011;4356;49.068;8.658;2023-10-31T10:05:59;1.60;;;1.10;;
8636;SDS011;4356;49.068;8.658;2023-10-31T10:08:27;0.80;;;0.80;;
8636;SDS011;4356;49.068;8.658;2023-10-31T10:10:53;1.13;;;0.77;;
8636;SDS011;4356;49.068;8.658;2023-10-31T10:13:22;1.93;;;0.90;;
8636;SDS011;4356;49.068;8.658;2023-10-31T10:15:49;1.00;;;1.00;;
8636;SDS011;4356;49.068;8.658;2023-10-31T10:18:26;1.10;;;0.97;;
8636;SDS011;4356;49.068;8.658;2023-10-31T10:21:00;4.33;;;1.50;;
8636;SDS011;4356;49.068;8.658;2023-10-31T10:23:28;2.17;;;0.93;;
8636;SDS011;4356;49.068;8.658;2023-10-31T10:25:55;0.77;;;0.60;;
8636;SDS011;4356;49.068;8.658;2023-10-31T10:28:22;1.47;;;1.03;;
8636;SDS011;4356;49.068;8.658;2023-10-31T10:30:51;0.83;;;0.77;;
8636;SDS011;4356;49.068;8.658;2023-10-31T10:33:17;0.90;;;0.90;;
8636;SDS011;4356;49.068;8.658;2023-10-31T10:35:43;0.80;;;0.80;;
8636;SDS011;4356;49.068;8.658;2023-10-31T10:38:16;2.20;;;1.17;;
8636;SDS011;4356;49.068;8.658;2023-10-31T10:40:43;0.83;;;0.83;;
8636;SDS011;4356;49.068;8.658;2023-10-31T10:43:17;0.73;;;0.73;;
8636;SDS011;4356;49.068;8.658;2023-10-31T10:45:55;2.70;;;0.97;;
8636;SDS011;4356;49.068;8.658;2023-10-31T10:48:22;0.77;;;0.77;;
8636;SDS011;4356;49.068;8.658;2023-10-31T10:51:04;1.27;;;1.00;;
8636;SDS011;4356;49.068;8.658;2023-10-31T10:53:35;1.60;;;0.70;;
8636;SDS011;4356;49.068;8.658;2023-10-31T10:56:09;0.80;;;0.80;;
8636;SDS011;4356;49.068;8.658;2023-10-31T10:58:55;0.83;;;0.83;;
8636;SDS011;4356;49.068;8.658;2023-10-31T11:01:25;0.87;;;0.87;;
8636;SDS011;4356;49.068;8.658;2023-10-31T11:03:52;1.57;;;1.37;;
8636;SDS011;4356;49.068;8.658;2023-10-31T11:06:20;0.97;;;0.87;;
8636;SDS011;4356;49.068;8.658;2023-10-31T11:08:45;4.10;;;0.80;;
8636;SDS011;4356;49.068;8.658;2023-10-31T11:11:12;0.40;;;0.40;;
8636;SDS011;4356;49.068;8.658;2023-10-31T11:13:37;1.47;;;1.00;;
8636;SDS011;4356;49.068;8.658;2023-10-31T11:16:07;0.80;;;0.70;;
8636;SDS011;4356;49.068;8.658;2023-10-31T11:18:38;0.50;;;0.50;;
8636;SDS011;4356;49.068;8.658;2023-10-31T11:21:04;1.03;;;0.93;;
8636;SDS011;4356;49.068;8.658;2023-10-31T11:23:30;1.83;;;0.73;;
8636;SDS011;4356;49.068;8.658;2023-10-31T11:25:55;2.60;;;0.90;;
8636;SDS011;4356;49.068;8.658;2023-10-31T11:28:21;1.33;;;0.80;;
8636;SDS011;4356;49.068;8.658;2023-10-31T11:30:49;1.53;;;0.80;;
8636;SDS011;4356;49.068;8.658;2023-10-31T11:33:16;1.53;;;1.27;;
8636;SDS011;4356;49.068;8.658;2023-10-31T11:35:49;1.70;;;0.83;;
8636;SDS011;4356;49.068;8.658;2023-10-31T11:38:35;1.17;;;0.83;;
8636;SDS011;4356;49.068;8.658;2023-10-31T11:41:02;1.50;;;0.87;;
8636;SDS011;4356;49.068;8.658;2023-10-31T11:43:36;1.40;;;1.00;;
8636;SDS011;4356;49.068;8.658;2023-10-31T11:46:33;2.10;;;0.90;;
8636;SDS011;4356;49.068;8.658;2023-10-31T11:48:59;1.20;;;0.90;;
8636;SDS011;4356;49.068;8.658;2023-10-31T11:51:29;1.30;;;1.20;;
8636;SDS011;4356;49.068;8.658;2023-10-31T11:53:55;2.33;;;1.30;;
8636;SDS011;4356;49.068;8.658;2023-10-31T11:56:21;1.33;;;1.10;;
8636;SDS011;4356;49.068;8.658;2023-10-31T11:58:55;3.30;;;1.03;;
8636;SDS011;4356;49.068;8.658;2023-10-31T12:01:24;4.87;;;1.00;;
8636;SDS011;4356;49.068;8.658;2023-10-31T12:03:49;1.47;;;1.37;;
8636;SDS011;4356;49.068;8.658;2023-10-31T12:06:15;1.50;;;1.33;;
8636;SDS011;4356;49.068;8.658;2023-10-31T12:08:43;3.90;;;1.40;;
8636;SDS011;4356;49.068;8.658;2023-10-31T12:11:13;1.73;;;1.57;;
8636;SDS011;4356;49.068;8.658;2023-10-31T12:16:32;6.80;;;1.80;;
8636;SDS011;4356;49.068;8.658;2023-10-31T12:24:12;2.27;;;1.60;;
8636;SDS011;4356;49.068;8.658;2023-10-31T12:26:39;2.97;;;1.73;;
8636;SDS011;4356;49.068;8.658;2023-10-31T12:29:09;1.60;;;1.50;;
8636;SDS011;4356;49.068;8.658;2023-10-31T12:31:45;1.40;;;1.30;;
8636;SDS011;4356;49.068;8.658;2023-10-31T12:34:17;1.93;;;1.50;;
8636;SDS011;4356;49.068;8.658;2023-10-31T12:36:43;2.20;;;1.43;;
8636;SDS011;4356;49.068;8.658;2023-10-31T12:39:11;1.23;;;1.13;;
8636;SDS011;4356;49.068;8.658;2023-10-31T12:41:37;1.57;;;1.47;;
8636;SDS011;4356;49.068;8.658;2023-10-31T12:44:04;1.43;;;1.43;;
8636;SDS011;4356;49.068;8.658;2023-10-31T12:46:31;1.37;;;1.13;;
8636;SDS011;4356;49.068;8.658;2023-10-31T12:48:57;2.40;;;1.30;;
8636;SDS011;4356;49.068;8.658;2023-10-31T12:51:23;0.83;;;0.80;;
8636;SDS011;4356;49.068;8.658;2023-10-31T12:53:50;0.70;;;0.70;;
8636;SDS011;4356;49.068;8.658;2023-10-31T12:56:35;2.93;;;0.53;;
8636;SDS011;4356;49.068;8.658;2023-10-31T12:59:07;1.80;;;0.80;;
8636;SDS011;4356;49.068;8.658;2023-10-31T13:01:42;0.93;;;0.93;;
8636;SDS011;4356;49.068;8.658;2023-10-31T13:04:08;0.77;;;0.77;;
8636;SDS011;4356;49.068;8.658;2023-10-31T13:06:34;0.63;;;0.63;;
8636;SDS011;4356;49.068;8.658;2023-10-31T13:09:00;0.70;;;0.70;;
8636;SDS011;4356;49.068;8.658;2023-10-31T13:11:30;1.90;;;1.10;;
8636;SDS011;4356;49.068;8.658;2023-10-31T13:13:56;1.00;;;1.00;;
8636;SDS011;4356;49.068;8.658;2023-10-31T13:16:23;0.90;;;0.83;;
8636;SDS011;4356;49.068;8.658;2023-10-31T13:18:49;2.30;;;1.27;;
8636;SDS011;4356;49.068;8.658;2023-10-31T13:21:14;0.80;;;0.80;;
8636;SDS011;4356;49.068;8.658;2023-10-31T13:23:41;1.00;;;1.00;;
8636;SDS011;4356;49.068;8.658;2023-10-31T13:26:10;1.17;;;0.80;;
8636;SDS011;4356;49.068;8.658;2023-10-31T13:28:36;0.97;;;0.87;;
8636;SDS011;4356;49.068;8.658;2023-10-31T13:31:04;1.30;;;1.00;;
8636;SDS011;4356;49.068;8.658;2023-10-31T13:33:29;1.77;;;1.00;;
8636;SDS011;4356;49.068;8.658;2023-10-31T13:35:55;0.90;;;0.80;;
8636;SDS011;4356;49.068;8.658;2023-10-31T13:38:20;0.90;;;0.73;;
8636;SDS011;4356;49.068;8.658;2023-10-31T13:40:45;0.77;;;0.77;;
8636;SDS011;4356;49.068;8.658;2023-10-31T13:43:11;2.67;;;1.03;;
8636;SDS011;4356;49.068;8.658;2023-10-31T13:45:36;1.00;;;1.00;;
8636;SDS011;4356;49.068;8.658;2023-10-31T13:48:02;1.00;;;0.93;;
8636;SDS011;4356;49.068;8.658;2023-10-31T13:50:27;0.57;;;0.57;;
8636;SDS011;4356;49.068;8.658;2023-10-31T13:52:53;0.83;;;0.83;;
8636;SDS011;4356;49.068;8.658;2023-10-31T13:55:19;0.63;;;0.50;;
8636;SDS011;4356;49.068;8.658;2023-10-31T13:57:44;1.70;;;0.83;;
8636;SDS011;4356;49.068;8.658;2023-10-31T14:00:10;1.00;;;1.00;;
8636;SDS011;4356;49.068;8.658;2023-10-31T14:02:35;0.90;;;0.80;;
8636;SDS011;4356;49.068;8.658;2023-10-31T14:05:04;0.60;;;0.60;;
8636;SDS011;4356;49.068;8.658;2023-10-31T14:07:30;0.90;;;0.70;;
8636;SDS011;4356;49.068;8.658;2023-10-31T14:09:55;1.60;;;0.90;;
8636;SDS011;4356;49.068;8.658;2023-10-31T14:12:22;1.43;;;0.93;;
8636;SDS011;4356;49.068;8.658;2023-10-31T14:14:48;1.30;;;1.20;;
8636;SDS011;4356;49.068;8.658;2023-10-31T14:17:14;0.93;;;0.93;;
8636;SDS011;4356;49.068;8.658;2023-10-31T14:19:42;0.60;;;0.60;;
8636;SDS011;4356;49.068;8.658;2023-10-31T14:22:07;1.10;;;0.90;;
8636;SDS011;4356;49.068;8.658;2023-10-31T14:24:33;1.07;;;0.87;;
8636;SDS011;4356;49.068;8.658;2023-10-31T14:26:59;0.53;;;0.53;;
8636;SDS011;4356;49.068;8.658;2023-10-31T14:29:25;0.90;;;0.90;;
8636;SDS011;4356;49.068;8.658;2023-10-31T14:31:51;0.83;;;0.80;;
8636;SDS011;4356;49.068;8.658;2023-10-31T14:34:16;0.90;;;0.70;;
8636;SDS011;4356;49.068;8.658;2023-10-31T14:36:41;1.17;;;0.90;;
8636;SDS011;4356;49.068;8.658;2023-10-31T14:39:07;2.43;;;0.83;;
8636;SDS011;4356;49.068;8.658;2023-10-31T14:41:34;0.60;;;0.60;;
8636;SDS011;4356;49.068;8.658;2023-10-31T14:44:00;0.70;;;0.70;;
8636;SDS011;4356;49.068;8.658;2023-10-31T14:46:28;3.57;;;0.70;;
8636;SDS011;4356;49.068;8.658;2023-10-31T14:48:54;1.33;;;0.90;;
8636;SDS011;4356;49.068;8.658;2023-10-31T14:51:20;0.70;;;0.70;;
8636;SDS011;4356;49.068;8.658;2023-10-31T14:53:45;0.93;;;0.93;;
8636;SDS011;4356;49.068;8.658;2023-10-31T14:56:11;0.63;;;0.63;;
8636;SDS011;4356;49.068;8.658;2023-10-31T14:58:36;0.83;;;0.83;;
8636;SDS011;4356;49.068;8.658;2023-10-31T15:01:02;0.67;;;0.50;;
8636;SDS011;4356;49.068;8.658;2023-10-31T15:03:29;1.60;;;0.70;;
8636;SDS011;4356;49.068;8.658;2023-10-31T15:05:56;1.30;;;1.10;;
8636;SDS011;4356;49.068;8.658;2023-10-31T15:08:22;0.80;;;0.80;;
8636;SDS011;4356;49.068;8.658;2023-10-31T15:10:48;2.63;;;1.03;;
8636;SDS011;4356;49.068;8.658;2023-10-31T15:13:13;0.80;;;0.50;;
8636;SDS011;4356;49.068;8.658;2023-10-31T15:15:39;0.83;;;0.83;;
8636;SDS011;4356;49.068;8.658;2023-10-31T15:18:04;3.07;;;0.70;;